createdAt,value
2023-01-29T00:00:25.586Z,25.88
2023-01-29T00:05:55.695Z,25.33
2023-01-29T00:08:40.863Z,26.35
2023-01-29T00:14:10.153Z,24.63
2023-01-29T00:19:39.524Z,25.08
2023-01-29T00:25:10.924Z,24.27
2023-01-29T00:27:55.983Z,26.17
2023-01-29T00:30:41.445Z,24.67
2023-01-29T00:36:14.943Z,27.50
2023-01-29T00:39:01.979Z,25.17
2023-01-29T00:42:07.248Z,24.55
2023-01-29T00:44:59.614Z,24.88
2023-01-29T00:47:44.199Z,24.08
2023-01-29T00:50:30.266Z,27.35
2023-01-29T00:53:14.753Z,25.15
2023-01-29T00:56:00.107Z,24.95
2023-01-29T00:58:44.536Z,26.98
2023-01-29T01:04:35.012Z,26.23
2023-01-29T01:07:19.698Z,25.73
2023-01-29T01:13:07.344Z,28.25
2023-01-29T01:15:52.850Z,24.92
2023-01-29T01:18:38.248Z,29.73
2023-01-29T01:21:23.408Z,30.17
2023-01-29T01:24:08.108Z,31.15
2023-01-29T01:26:52.916Z,27.70
2023-01-29T01:32:23.269Z,27.08
2023-01-29T01:35:10.481Z,22.60
2023-01-29T01:37:55.303Z,26.80
2023-01-29T01:40:45.221Z,33.67
2023-01-29T01:43:48.261Z,29.30
2023-01-29T01:46:37.331Z,25.20
2023-01-29T01:49:23.838Z,25.70
2023-01-29T01:52:09.312Z,25.63
2023-01-29T01:54:54.393Z,25.65
2023-01-29T02:00:26.291Z,27.67
2023-01-29T02:03:30.634Z,26.02
2023-01-29T02:06:34.443Z,23.45
2023-01-29T02:09:38.148Z,26.33
2023-01-29T02:12:23.625Z,20.40
2023-01-29T02:15:09.170Z,19.60
2023-01-29T02:17:54.015Z,19.20
2023-01-29T02:20:43.343Z,21.55
2023-01-29T02:23:48.136Z,21.27
2023-01-29T02:26:59.472Z,22.10
2023-01-29T02:29:52.166Z,19.77
2023-01-29T02:32:54.481Z,21.15
2023-01-29T02:35:50.199Z,21.30
2023-01-29T02:38:47.207Z,16.85
2023-01-29T02:44:46.896Z,19.60
2023-01-29T02:47:39.395Z,19.25
2023-01-29T02:50:45.144Z,19.08
2023-01-29T02:54:01.578Z,17.65
2023-01-29T02:56:59.150Z,20.08
2023-01-29T03:00:46.828Z,21.77
2023-01-29T03:03:39.891Z,19.73
2023-01-29T03:06:37.505Z,23.08
2023-01-29T03:15:24.699Z,19.58
2023-01-29T03:18:30.034Z,19.23
2023-01-29T03:21:48.783Z,20.05
2023-01-29T03:25:08.048Z,20.85
2023-01-29T03:28:17.982Z,17.08
2023-01-29T03:31:27.035Z,18.40
2023-01-29T03:34:24.058Z,22.50
2023-01-29T03:37:27.184Z,18.90
2023-01-29T03:40:13.615Z,17.58
2023-01-29T03:43:25.870Z,22.15
2023-01-29T03:46:22.519Z,19.75
2023-01-29T03:49:51.970Z,17.38
2023-01-29T03:53:07.838Z,18.42
2023-01-29T03:56:06.384Z,19.30
2023-01-29T03:59:18.536Z,17.00
2023-01-29T04:02:31.327Z,15.00
2023-01-29T04:05:22.139Z,19.00
2023-01-29T04:08:27.031Z,17.70
2023-01-29T04:11:16.432Z,16.02
2023-01-29T04:14:01.868Z,16.40
2023-01-29T04:16:52.760Z,14.98
2023-01-29T04:20:02.935Z,17.40
2023-01-29T04:22:50.908Z,16.98
2023-01-29T04:25:45.107Z,20.70
2023-01-29T04:28:47.476Z,18.85
2023-01-29T04:31:43.010Z,16.33
2023-01-29T04:34:34.384Z,15.82
2023-01-29T04:37:43.381Z,17.92
2023-01-29T04:40:54.866Z,19.25
2023-01-29T04:43:52.130Z,19.60
2023-01-29T04:47:13.025Z,17.90
2023-01-29T04:50:09.722Z,18.73
2023-01-29T04:53:11.365Z,17.35
2023-01-29T04:56:20.180Z,16.77
2023-01-29T04:59:09.470Z,19.55
2023-01-29T05:01:54.480Z,17.33
2023-01-29T05:04:41.516Z,17.30
2023-01-29T05:07:30.278Z,19.70
2023-01-29T05:10:18.651Z,22.13
2023-01-29T05:13:07.954Z,18.50
2023-01-29T05:16:28.175Z,19.85
2023-01-29T05:19:15.319Z,16.77
2023-01-29T05:22:00.441Z,19.90
2023-01-29T05:24:45.946Z,22.77
2023-01-29T05:27:53.957Z,22.67
2023-01-29T05:30:39.799Z,18.80
2023-01-29T05:33:30.407Z,17.15
2023-01-29T05:36:15.524Z,18.63
2023-01-29T05:39:00.217Z,21.27
2023-01-29T05:41:45.092Z,18.70
2023-01-29T05:44:30.057Z,21.67
2023-01-29T05:47:19.340Z,19.85
2023-01-29T05:50:05.744Z,19.15
2023-01-29T05:52:59.537Z,20.38
2023-01-29T05:55:45.548Z,18.67
2023-01-29T05:58:31.989Z,19.88
2023-01-29T06:01:19.758Z,20.95
2023-01-29T06:04:04.629Z,22.90
2023-01-29T06:06:49.564Z,27.05
2023-01-29T06:12:19.416Z,25.75
2023-01-29T06:15:04.355Z,21.55
2023-01-29T06:20:33.843Z,21.05
2023-01-29T06:26:09.740Z,21.80
2023-01-29T06:28:54.807Z,23.98
2023-01-29T06:34:24.967Z,25.00
2023-01-29T06:37:09.958Z,23.95
2023-01-29T06:39:54.884Z,22.92
2023-01-29T06:42:39.618Z,22.02
2023-01-29T06:45:24.616Z,22.65
2023-01-29T06:48:09.200Z,20.48
2023-01-29T06:53:39.697Z,18.10
2023-01-29T06:56:25.220Z,21.80
2023-01-29T06:59:11.993Z,24.55
2023-01-29T07:01:56.731Z,22.40
2023-01-29T07:07:26.697Z,21.45
2023-01-29T07:10:11.633Z,22.70
2023-01-29T07:12:58.553Z,20.08
2023-01-29T07:15:44.150Z,21.80
2023-01-29T07:18:29.479Z,22.48
2023-01-29T07:21:14.578Z,19.35
2023-01-29T07:23:59.493Z,23.13
2023-01-29T07:26:44.942Z,18.52
2023-01-29T07:29:29.796Z,27.63
2023-01-29T07:32:14.616Z,20.08
2023-01-29T07:34:59.225Z,20.38
2023-01-29T07:37:44.223Z,26.98
2023-01-29T07:43:14.307Z,24.75
2023-01-29T07:46:03.838Z,26.48
2023-01-29T07:48:48.808Z,24.33
2023-01-29T07:54:18.472Z,24.33
2023-01-29T07:59:48.080Z,27.20
2023-01-29T08:02:33.190Z,22.33
2023-01-29T08:08:07.381Z,23.42
2023-01-29T08:10:52.271Z,26.42
2023-01-29T08:13:37.201Z,29.95
2023-01-29T08:16:22.856Z,29.13
2023-01-29T08:19:07.930Z,28.67
2023-01-29T08:21:52.709Z,25.92
2023-01-29T08:24:53.215Z,27.90
2023-01-29T08:27:40.038Z,38.08
2023-01-29T08:30:27.403Z,35.92
2023-01-29T08:33:12.100Z,27.83
2023-01-29T08:38:41.717Z,18.23
2023-01-29T08:41:26.679Z,22.35
2023-01-29T08:44:12.090Z,22.08
2023-01-29T08:46:56.867Z,20.48
2023-01-29T08:49:41.793Z,23.45
2023-01-29T08:52:26.754Z,18.52
2023-01-29T08:55:12.731Z,27.33
2023-01-29T08:57:57.389Z,23.65
2023-01-29T09:00:42.283Z,21.48
2023-01-29T09:03:27.292Z,24.38
2023-01-29T09:06:13.871Z,19.23
2023-01-29T09:08:58.730Z,24.88
2023-01-29T09:11:44.251Z,20.67
2023-01-29T09:14:29.089Z,20.95
2023-01-29T09:17:13.682Z,23.98
2023-01-29T09:19:58.660Z,21.40
2023-01-29T09:25:28.975Z,19.20
2023-01-29T09:28:13.561Z,22.23
2023-01-29T09:33:45.459Z,17.73
2023-01-29T09:36:30.107Z,22.50
2023-01-29T09:41:59.591Z,20.60
2023-01-29T09:45:10.076Z,16.85
2023-01-29T09:48:05.152Z,17.15
2023-01-29T09:50:54.559Z,18.13
2023-01-29T09:53:46.972Z,13.95
2023-01-29T09:56:31.603Z,17.88
2023-01-29T10:02:03.373Z,25.23
2023-01-29T10:05:09.693Z,24.80
2023-01-29T10:08:09.587Z,35.50
2023-01-29T10:11:11.016Z,22.77
2023-01-29T10:14:22.509Z,20.17
2023-01-29T10:17:25.493Z,17.05
2023-01-29T10:20:28.877Z,23.50
2023-01-29T10:23:28.539Z,17.77
2023-01-29T10:26:13.776Z,21.70
2023-01-29T10:29:00.668Z,21.67
2023-01-29T10:31:51.796Z,23.40
2023-01-29T10:34:48.025Z,25.50
2023-01-29T10:37:41.989Z,22.08
2023-01-29T10:41:25.572Z,15.88
2023-01-29T10:44:29.892Z,20.42
2023-01-29T10:47:53.542Z,20.92
2023-01-29T10:51:18.396Z,21.80
2023-01-29T10:54:26.412Z,25.20
2023-01-29T10:57:28.693Z,19.13
2023-01-29T11:00:20.907Z,15.45
2023-01-29T11:03:28.806Z,19.80
2023-01-29T11:06:30.322Z,27.30
2023-01-29T11:09:41.078Z,20.75
2023-01-29T11:12:30.860Z,21.83
2023-01-29T11:15:22.009Z,22.65
2023-01-29T11:18:13.068Z,19.25
2023-01-29T11:21:04.058Z,17.60
2023-01-29T11:26:37.831Z,20.88
2023-01-29T11:29:38.744Z,20.98
2023-01-29T11:32:23.364Z,14.68
2023-01-29T11:35:14.082Z,14.23
2023-01-29T11:41:17.886Z,17.52
2023-01-29T11:44:17.813Z,21.73
2023-01-29T11:47:26.886Z,18.38
2023-01-29T11:50:21.339Z,20.55
2023-01-29T11:53:07.057Z,15.95
2023-01-29T11:55:52.431Z,21.42
2023-01-29T11:58:37.333Z,17.27
2023-01-29T12:04:25.699Z,15.82
2023-01-29T12:07:15.837Z,15.50
2023-01-29T12:10:00.956Z,19.30
2023-01-29T12:12:46.251Z,16.67
2023-01-29T12:18:18.849Z,16.67
2023-01-29T12:21:09.875Z,19.13
2023-01-29T12:24:20.771Z,19.90
2023-01-29T12:27:24.710Z,22.38
2023-01-29T12:33:20.192Z,14.07
2023-01-29T12:36:11.942Z,12.98
2023-01-29T12:41:46.529Z,16.33
2023-01-29T12:44:54.965Z,18.02
2023-01-29T12:48:05.502Z,18.05
2023-01-29T12:50:53.020Z,18.52
2023-01-29T12:53:39.435Z,21.10
2023-01-29T12:56:36.402Z,22.50
2023-01-29T12:59:29.366Z,15.75
2023-01-29T13:02:35.843Z,20.00
2023-01-29T13:05:23.400Z,19.80
2023-01-29T13:08:42.797Z,17.88
2023-01-29T13:11:37.378Z,24.58
2023-01-29T13:14:35.340Z,19.55
2023-01-29T13:17:30.606Z,21.77
2023-01-29T13:20:30.391Z,19.25
2023-01-29T13:23:36.801Z,16.10
2023-01-29T13:26:22.590Z,12.50
2023-01-29T13:29:32.200Z,14.05
2023-01-29T13:32:50.777Z,15.15
2023-01-29T13:35:44.350Z,14.60
2023-01-29T13:38:32.995Z,18.88
2023-01-29T13:41:17.995Z,17.30
2023-01-29T13:44:07.461Z,19.80
2023-01-29T13:46:59.534Z,18.58
2023-01-29T13:49:55.761Z,15.23
2023-01-29T13:52:43.849Z,16.38
2023-01-29T13:55:32.894Z,14.48
2023-01-29T13:58:43.140Z,16.63
2023-01-29T14:01:46.471Z,17.70
2023-01-29T14:04:31.994Z,14.75
2023-01-29T14:10:23.439Z,16.48
2023-01-29T14:13:11.280Z,19.30
2023-01-29T14:15:55.848Z,20.77
2023-01-29T14:19:07.097Z,21.35
2023-01-29T14:21:52.609Z,19.98
2023-01-29T14:27:27.718Z,15.60
2023-01-29T14:30:17.596Z,18.42
2023-01-29T14:33:02.947Z,19.23
2023-01-29T14:35:52.504Z,16.40
2023-01-29T14:38:39.478Z,18.90
2023-01-29T14:41:33.219Z,19.35
2023-01-29T14:44:55.931Z,24.20
2023-01-29T14:47:40.745Z,21.30
2023-01-29T14:53:25.607Z,15.45
2023-01-29T14:56:26.457Z,15.85
2023-01-29T14:59:26.344Z,16.65
2023-01-29T15:02:26.600Z,17.20
2023-01-29T15:05:18.103Z,16.40
2023-01-29T15:08:13.371Z,15.32
2023-01-29T15:11:21.202Z,15.93
2023-01-29T15:14:16.148Z,17.13
2023-01-29T15:17:19.091Z,27.20
2023-01-29T15:20:35.079Z,26.58
2023-01-29T15:23:27.036Z,22.55
2023-01-29T15:26:18.627Z,22.90
2023-01-29T15:29:05.272Z,21.75
2023-01-29T15:31:50.526Z,23.27
2023-01-29T15:34:35.670Z,19.88
2023-01-29T15:37:39.541Z,15.25
2023-01-29T15:40:24.907Z,20.40
2023-01-29T15:43:28.798Z,18.58
2023-01-29T15:46:34.176Z,18.83
2023-01-29T15:49:29.792Z,17.50
2023-01-29T15:52:34.465Z,21.95
2023-01-29T15:55:22.712Z,23.80
2023-01-29T15:58:15.238Z,21.27
2023-01-29T16:01:01.248Z,19.48
2023-01-29T16:03:49.513Z,17.42
2023-01-29T16:06:40.260Z,14.82
2023-01-29T16:09:26.678Z,19.75
2023-01-29T16:12:12.811Z,18.00
2023-01-29T16:14:57.803Z,15.65
2023-01-29T16:20:29.467Z,19.85
2023-01-29T16:23:21.964Z,19.77
2023-01-29T16:26:12.194Z,18.27
2023-01-29T16:29:02.664Z,16.55
2023-01-29T16:31:50.901Z,19.55
2023-01-29T16:34:44.172Z,18.27
2023-01-29T16:37:35.093Z,16.88
2023-01-29T16:40:32.457Z,17.35
2023-01-29T16:43:17.527Z,16.02
2023-01-29T16:46:02.886Z,18.52
2023-01-29T16:48:47.881Z,19.30
2023-01-29T16:51:39.150Z,17.35
2023-01-29T16:54:25.596Z,20.02
2023-01-29T16:57:17.572Z,23.85
2023-01-29T17:00:07.936Z,23.10
2023-01-29T17:02:58.847Z,21.08
2023-01-29T17:05:44.860Z,22.08
2023-01-29T17:08:33.334Z,21.17
2023-01-29T17:11:35.697Z,22.70
2023-01-29T17:14:20.864Z,20.50
2023-01-29T17:17:14.542Z,20.77
2023-01-29T17:20:13.480Z,15.68
2023-01-29T17:22:58.310Z,17.63
2023-01-29T17:25:43.895Z,19.00
2023-01-29T17:28:30.362Z,22.13
2023-01-29T17:31:15.000Z,17.60
2023-01-29T17:36:45.355Z,18.63
2023-01-29T17:39:30.037Z,15.63
2023-01-29T17:42:15.192Z,16.55
2023-01-29T17:44:59.869Z,17.85
2023-01-29T17:50:31.719Z,14.75
2023-01-29T17:53:16.740Z,18.90
2023-01-29T17:56:01.753Z,18.23
2023-01-29T17:58:47.028Z,27.30
2023-01-29T18:01:31.943Z,20.08
2023-01-29T18:07:02.162Z,28.98
2023-01-29T18:12:31.402Z,27.15
2023-01-29T18:18:02.042Z,23.85
2023-01-29T18:23:32.045Z,19.35
2023-01-29T18:26:17.246Z,25.95
2023-01-29T18:29:03.372Z,23.13
2023-01-29T18:31:49.104Z,22.02
2023-01-29T18:34:34.222Z,22.92
2023-01-29T18:37:18.869Z,24.88
2023-01-29T18:42:50.489Z,26.10
2023-01-29T18:48:21.190Z,21.42
2023-01-29T18:51:06.382Z,22.08
2023-01-29T18:56:36.529Z,30.35
2023-01-29T19:02:06.963Z,35.25
2023-01-29T19:04:51.704Z,36.45
2023-01-29T19:10:22.151Z,33.55
2023-01-29T19:13:07.232Z,32.22
2023-01-29T19:18:37.265Z,35.55
2023-01-29T19:21:23.464Z,33.67
2023-01-29T19:24:09.625Z,37.40
2023-01-29T19:26:54.784Z,35.22
2023-01-29T19:29:39.803Z,36.67
2023-01-29T19:32:25.565Z,42.20
2023-01-29T19:35:10.552Z,42.10
2023-01-29T19:40:39.744Z,34.72
2023-01-29T19:43:29.858Z,32.67
2023-01-29T19:46:15.675Z,38.60
2023-01-29T19:49:02.910Z,35.42
2023-01-29T19:51:47.725Z,48.60
2023-01-29T19:54:32.580Z,45.88
2023-01-29T20:00:04.984Z,44.90
2023-01-29T20:02:50.128Z,38.67
2023-01-29T20:05:36.772Z,39.42
2023-01-29T20:08:23.137Z,44.13
2023-01-29T20:11:09.310Z,39.08
2023-01-29T20:13:54.097Z,33.22
2023-01-29T20:16:38.923Z,33.33
2023-01-29T20:19:23.497Z,30.48
2023-01-29T20:22:07.915Z,41.47
2023-01-29T20:27:38.070Z,34.65
2023-01-29T20:33:08.599Z,27.80
2023-01-29T20:35:55.048Z,29.52
2023-01-29T20:38:39.889Z,30.38
2023-01-29T20:44:09.864Z,30.20
2023-01-29T20:46:55.636Z,29.58
2023-01-29T20:49:40.656Z,28.48
2023-01-29T20:52:25.971Z,30.75
2023-01-29T20:55:12.154Z,32.28
2023-01-29T20:58:06.357Z,26.77
2023-01-29T21:00:52.500Z,25.52
2023-01-29T21:03:38.749Z,25.00
2023-01-29T21:06:24.977Z,26.52
2023-01-29T21:09:09.950Z,26.80
2023-01-29T21:11:55.013Z,24.13
2023-01-29T21:17:25.060Z,25.45
2023-01-29T21:20:10.823Z,24.70
2023-01-29T21:22:55.760Z,21.85
2023-01-29T21:28:25.559Z,21.98
2023-01-29T21:31:14.177Z,25.92
2023-01-29T21:33:59.086Z,23.58
2023-01-29T21:36:46.100Z,22.35
2023-01-29T21:39:30.869Z,24.55
2023-01-29T21:42:34.053Z,26.42
2023-01-29T21:45:19.408Z,23.63
2023-01-29T21:48:04.603Z,24.40
2023-01-29T21:50:49.777Z,22.20
2023-01-29T21:56:19.567Z,21.10
2023-01-29T21:59:04.317Z,24.88
2023-01-29T22:01:49.405Z,26.27
2023-01-29T22:07:18.952Z,27.05
2023-01-29T22:10:04.717Z,29.83
2023-01-29T22:12:49.451Z,26.13
2023-01-29T22:15:34.062Z,27.55
2023-01-29T22:18:18.892Z,28.58
2023-01-29T22:23:51.150Z,30.17
2023-01-29T22:26:36.241Z,27.52
2023-01-29T22:32:06.723Z,35.83
2023-01-29T22:34:51.685Z,38.17
2023-01-29T22:40:21.086Z,35.65
2023-01-29T22:43:06.287Z,34.78
2023-01-29T22:45:51.347Z,36.90
2023-01-29T22:51:20.883Z,31.63
2023-01-29T22:54:05.519Z,30.83
2023-01-29T22:56:49.992Z,36.97
2023-01-29T23:02:20.602Z,32.90
2023-01-29T23:05:06.555Z,29.90
2023-01-29T23:07:51.157Z,29.67
2023-01-29T23:10:35.777Z,29.83
2023-01-29T23:13:20.293Z,28.30
2023-01-29T23:16:05.538Z,31.67
2023-01-29T23:18:52.346Z,34.65
2023-01-29T23:21:37.954Z,27.75
2023-01-29T23:24:22.718Z,30.70
2023-01-29T23:27:13.836Z,27.60
2023-01-29T23:29:58.622Z,32.17
2023-01-29T23:32:43.746Z,26.65
2023-01-29T23:35:28.585Z,25.98
2023-01-29T23:38:13.200Z,29.15
2023-01-29T23:40:59.129Z,25.15
2023-01-29T23:43:44.040Z,29.50
2023-01-29T23:46:29.442Z,29.73
2023-01-29T23:49:13.982Z,34.78
2023-01-29T23:54:43.843Z,26.20
2023-01-29T23:57:28.420Z,29.50
